Brandon Municipal Airport
CYBR : now visible

Airfield :











YOU CAN JOIN US ON...

 
LOGIN :

Register | Disclaimer

   EN    FR    IT 

 









Legend :    VFR   Marginal VFR   IFR   Intensive IFR   Very Intensive IFR
Visi :
Ceiling :
>= 8 km
>= 3000ft
5 to 8 km
1000 to 3000 ft
1500m to 5 km
500 to 1000 ft
800 to 1500m
200 to 500 ft
< 800m
< 200 ft
Symbols :   Thunderstorms  Fog  Heavy snow  Heavy precipitations  Wind > 20 kt






- Airport Elevation : 1343 ft
- IATA code : YBR


CYBR - Brandon Municipal

CURRENT METAR :
  • 250900Z 05003KT 1/4SM FZFG VV002 M13/M15 A2993 RMK FG8 SLP171

EXPIRED METARs :
  • 250836Z 03003KT 360V070 1/4SM FZFG VV002 M13/M15 A2993 RMK FG8 SLP173
  • 250812Z 29002KT 2SM BR BKN002 M13/M15 A2994 RMK ST6 SLP175
  • 250800Z 26002KT 8SM BR SCT002 M13/M15 A2994 RMK ST3 SLP176
  • 250700Z 26006KT 2SM -SN BR OVC004 M12/M14 A2996 RMK ST8 CIG RAG SLP181
  • 250623Z 24005KT 2SM -SN BR OVC004 M11/M13 A2996 RMK ST8 CIG RAG SLP181

TAF AMD TAF CYBR
Valid from the 25 at 08:00 until the 25 at 18:00 UTC


250804Z 2508/2518 21005KT 6SM BR SCT002
TEMPO 2508/2516 2SM -SN BR BKN002
FM251600 05005KT P6SM SCT006 BKN070
TEMPO 2516/2518 BKN006 BKN070 RMK NXT FCST BY 251200Z



MET'MAP, your aeronautical weather chart ! - Copyright ORBIFLY December 2007 - Disclaimer

ORBIFLY MET'MAP TEAM :

Programming & Development : Alexandra Zaïnal
Concept & original design : Baudouin d'Aumeries
Assistance for programming : Marc-Olivier Méhu
Technical & hardware support : Manuel Goepfert

Contact : metmap@orbifly.com




SOURCES & CREDITS :

   NOAA       Earth
Advisory